Time;durP1;ratioP1;P1;durP2;ratioP2;P2;SDS_P1;SDS_P2;PMS_P1;PMS_P2;Temp;Humidity;BMP_temperature;BMP_pressure;BME280_temperature;BME280_humidity;BME280_pressure;Samples;Min_cycle;Max_cycle;Signal;HPM_P1;HPM_P2
2022/05/23 00:02:16;;;;;;;;;4.75;4.75;;;;;18.97;59.49;99684.22;5034593;28;45398;-78
2022/05/23 00:04:42;;;;;;;;;7.00;5.50;;;;;18.97;59.72;99684.22;5034593;28;45483;-76
2022/05/23 00:07:22;;;;;;;;;5.50;5.50;;;;;18.94;60.44;99683.59;5038534;28;45492;-77
2022/05/23 00:09:49;;;;;;;;;7.25;6.00;;;;;18.92;60.46;99691.72;5038987;28;45341;-78
2022/05/23 00:12:14;;;;;;;;;6.00;6.00;;;;;18.90;60.37;99693.63;5050867;28;45446;-78
2022/05/23 00:14:41;;;;;;;;;7.00;7.00;;;;;18.84;60.54;99699.38;5035067;28;45402;-78
2022/05/23 00:17:10;;;;;;;;;6.00;6.00;;;;;18.82;60.98;99690.59;5035261;28;46099;-81
2022/05/23 00:19:35;;;;;;;;;8.50;6.75;;;;;18.80;61.07;99673.81;5054943;28;45352;-80
2022/05/23 00:22:00;;;;;;;;;3.25;3.00;;;;;18.84;61.23;99667.25;5017151;28;45479;-81
2022/05/23 00:24:26;;;;;;;;;8.50;6.00;;;;;18.83;60.93;99665.56;5015502;28;45527;-77
2022/05/23 00:26:52;;;;;;;;;6.00;5.00;;;;;18.86;60.83;99665.38;5014639;28;46184;-80
2022/05/23 00:29:19;;;;;;;;;4.75;4.00;;;;;18.86;61.05;99672.53;5017623;28;45382;-80
2022/05/23 00:37:13;;;;;;;;;8.50;6.00;;;;;18.82;60.94;99651.31;5018274;28;45674;-80
2022/05/23 00:39:39;;;;;;;;;4.00;4.00;;;;;18.85;61.24;99646.72;5019130;28;45297;-80
2022/05/23 00:44:55;;;;;;;;;3.00;3.00;;;;;18.86;60.84;99630.59;5014497;28;45434;-80
2022/05/23 00:47:23;;;;;;;;;6.00;4.50;;;;;18.86;60.97;99622.56;5020608;28;45415;-80
2022/05/23 00:49:49;;;;;;;;;6.00;4.50;;;;;18.88;60.94;99625.97;5034551;28;45417;-80
2022/05/23 00:52:24;;;;;;;;;4.75;4.75;;;;;18.93;60.89;99621.19;5034855;28;45633;-80
2022/05/23 00:54:51;;;;;;;;;5.00;4.00;;;;;18.91;60.88;99631.13;5033440;28;45455;-80
2022/05/23 00:57:22;;;;;;;;;5.25;2.00;;;;;18.87;60.82;99624.25;5034647;28;46180;-80
2022/05/23 00:59:48;;;;;;;;;3.00;3.00;;;;;18.87;60.84;99621.56;5033811;28;45535;-80
2022/05/23 01:02:15;;;;;;;;;4.75;4.75;;;;;18.86;61.13;99627.91;5035400;28;45521;-80
2022/05/23 01:04:42;;;;;;;;;3.25;3.25;;;;;18.87;60.58;99629.59;5034748;28;45649;-79
2022/05/23 01:07:08;;;;;;;;;4.25;4.25;;;;;18.89;60.51;99611.63;5038360;28;46404;-80
2022/05/23 01:09:35;;;;;;;;;4.75;3.50;;;;;18.88;60.65;99595.69;5036991;28;45403;-80
2022/05/23 01:12:02;;;;;;;;;2.75;2.75;;;;;18.87;60.37;99588.59;5035165;28;45417;-80
2022/05/23 01:14:53;;;;;;;;;5.00;5.00;;;;;18.85;60.47;99587.84;5036620;28;45387;-80
2022/05/23 01:17:20;;;;;;;;;3.50;3.50;;;;;18.80;60.23;99572.09;5047928;28;46208;-80
2022/05/23 01:19:46;;;;;;;;;3.75;3.75;;;;;18.75;60.84;99558.16;5048023;28;44853;-80
2022/05/23 01:22:39;;;;;;;;;4.50;4.50;;;;;18.74;60.71;99553.78;5018234;28;45358;-80
2022/05/23 01:25:18;;;;;;;;;3.75;2.75;;;;;18.74;60.77;99540.41;5018612;28;45363;-80
2022/05/23 01:27:46;;;;;;;;;3.50;3.50;;;;;18.71;61.02;99536.13;5016621;28;46071;-80
2022/05/23 01:30:12;;;;;;;;;3.00;3.00;;;;;18.69;60.72;99516.66;5018166;28;45537;-78
2022/05/23 01:32:40;;;;;;;;;5.00;4.00;;;;;18.71;60.75;99522.75;5016300;28;45629;-78
2022/05/23 01:35:10;;;;;;;;;4.50;4.50;;;;;18.70;60.12;99525.53;5018797;28;45423;-78
2022/05/23 01:37:36;;;;;;;;;4.00;4.00;;;;;18.74;60.72;99535.06;5033743;28;45289;-77
2022/05/23 01:40:04;;;;;;;;;4.50;4.50;;;;;18.71;60.63;99522.75;5037494;28;45351;-77
2022/05/23 01:42:29;;;;;;;;;6.50;3.75;;;;;18.70;60.62;99512.16;5036538;28;45462;-77
2022/05/23 01:44:54;;;;;;;;;4.50;4.50;;;;;18.63;60.75;99493.84;5037101;28;45419;-78
2022/05/23 01:47:22;;;;;;;;;4.50;2.75;;;;;18.70;60.53;99493.41;5037041;28;45426;-77
2022/05/23 01:49:47;;;;;;;;;3.25;3.25;;;;;18.69;61.05;99476.50;5036839;28;45329;-77
2022/05/23 01:52:13;;;;;;;;;2.75;2.75;;;;;18.72;60.51;99472.75;5036850;28;45275;-78
2022/05/23 01:54:39;;;;;;;;;4.00;4.00;;;;;18.72;60.48;99491.47;5037487;28;45363;-78
2022/05/23 01:57:08;;;;;;;;;4.25;4.25;;;;;18.70;60.72;99478.19;5036651;28;45403;-78
2022/05/23 02:02:18;;;;;;;;;3.25;3.25;;;;;18.65;60.72;99473.19;5037025;28;45509;-77
2022/05/23 02:04:45;;;;;;;;;4.25;4.00;;;;;18.65;60.96;99462.47;5037645;28;45530;-77
2022/05/23 02:07:11;;;;;;;;;6.00;6.00;;;;;18.63;60.60;99461.75;5041886;28;45586;-77
2022/05/23 02:09:38;;;;;;;;;5.50;4.00;;;;;18.60;60.97;99461.13;5038009;28;45503;-78
2022/05/23 02:12:05;;;;;;;;;2.75;2.75;;;;;18.59;61.16;99452.22;5036375;28;45320;-77
2022/05/23 02:14:30;;;;;;;;;4.50;4.50;;;;;18.55;60.88;99471.28;5037279;28;45560;-77
2022/05/23 02:16:55;;;;;;;;;3.25;2.25;;;;;18.51;61.12;99469.75;5035501;28;47197;-78
2022/05/23 02:19:21;;;;;;;;;5.75;4.00;;;;;18.48;61.23;99478.88;5034553;28;45443;-77
2022/05/23 02:21:46;;;;;;;;;4.25;3.50;;;;;18.50;61.06;99489.47;5018271;28;45502;-77
2022/05/23 02:24:11;;;;;;;;;4.75;4.75;;;;;18.45;61.21;99490.66;5015769;28;45661;-77
2022/05/23 02:26:37;;;;;;;;;2.00;2.00;;;;;18.48;61.37;99494.94;5016172;28;45381;-76
2022/05/23 02:29:04;;;;;;;;;3.25;3.25;;;;;18.47;60.81;99487.88;5033801;28;45407;-77
2022/05/23 02:31:30;;;;;;;;;3.00;3.00;;;;;18.47;61.25;99490.53;5036608;28;45438;-78
2022/05/23 02:33:57;;;;;;;;;3.75;3.75;;;;;18.45;61.44;99484.44;5042153;28;45501;-81
2022/05/23 02:36:22;;;;;;;;;3.00;3.00;;;;;18.43;61.26;99492.59;5042138;28;46212;-80
2022/05/23 02:38:48;;;;;;;;;3.75;3.75;;;;;18.42;61.44;99500.72;5037090;28;45507;-81
2022/05/23 02:41:13;;;;;;;;;3.00;3.00;;;;;18.40;61.49;99490.13;5037392;28;45324;-80
2022/05/23 02:43:38;;;;;;;;;4.25;4.00;;;;;18.41;61.35;99494.47;5035320;28;45455;-80
2022/05/23 02:46:04;;;;;;;;;5.00;3.50;;;;;18.42;61.83;99487.34;5036487;28;45448;-80
2022/05/23 02:48:29;;;;;;;;;4.00;4.00;;;;;18.36;61.54;99485.94;5035288;28;45419;-81
2022/05/23 02:50:55;;;;;;;;;4.50;4.50;;;;;18.41;61.82;99490.97;5036174;28;45509;-80
2022/05/23 02:53:20;;;;;;;;;4.50;4.50;;;;;18.36;62.05;99488.63;5035716;28;45450;-80
2022/05/23 02:55:45;;;;;;;;;4.75;4.25;;;;;18.38;61.88;99481.31;5036347;28;46086;-81
2022/05/23 02:58:11;;;;;;;;;3.25;3.25;;;;;18.37;61.78;99476.09;5036904;28;45398;-80
2022/05/23 03:00:37;;;;;;;;;6.00;6.00;;;;;18.37;61.97;99479.63;5037573;28;45489;-81
2022/05/23 03:03:03;;;;;;;;;6.00;3.00;;;;;18.35;62.12;99478.88;5055931;28;45492;-81
2022/05/23 03:05:37;;;;;;;;;5.25;5.25;;;;;18.38;61.69;99483.16;5040608;28;45441;-80
2022/05/23 03:08:04;;;;;;;;;5.00;5.00;;;;;18.39;62.08;99499.09;5039578;28;45474;-80
2022/05/23 03:10:29;;;;;;;;;5.00;4.00;;;;;18.35;61.93;99504.78;5036032;28;45347;-81
2022/05/23 03:12:55;;;;;;;;;6.50;4.50;;;;;18.35;62.18;99510.97;5036130;28;45407;-77
2022/05/23 03:15:21;;;;;;;;;4.00;4.00;;;;;18.29;62.46;99506.91;5035775;28;45996;-80
2022/05/23 03:17:47;;;;;;;;;4.00;4.00;;;;;18.37;62.28;99509.06;5036014;28;45419;-80
2022/05/23 03:20:12;;;;;;;;;3.00;3.00;;;;;18.39;62.66;99511.63;5036486;28;45338;-80
2022/05/23 03:28:08;;;;;;;;;4.00;4.00;;;;;18.44;62.16;99477.38;5036341;28;45444;-80
2022/05/23 03:30:34;;;;;;;;;4.00;4.00;;;;;18.42;62.25;99474.81;5039161;28;45369;-80
2022/05/23 03:33:00;;;;;;;;;4.00;4.00;;;;;18.37;61.67;99471.63;5040229;28;45572;-80
2022/05/23 03:35:27;;;;;;;;;4.50;4.00;;;;;18.43;61.87;99472.97;5040751;28;46177;-80
2022/05/23 03:37:53;;;;;;;;;4.50;4.50;;;;;18.40;62.51;99459.81;5036282;28;45495;-80
2022/05/23 03:40:19;;;;;;;;;3.50;3.50;;;;;18.36;63.58;99437.78;5036509;28;45441;-80
2022/05/23 03:42:44;;;;;;;;;5.00;5.00;;;;;18.31;64.74;99434.59;5035752;28;45391;-80
2022/05/23 03:45:10;;;;;;;;;4.75;4.75;;;;;18.31;65.89;99450.66;5036006;28;45446;-80
2022/05/23 03:47:36;;;;;;;;;9.00;5.00;;;;;18.26;65.40;99450.94;5037312;28;45485;-80
2022/05/23 03:50:01;;;;;;;;;4.00;4.00;;;;;18.22;65.31;99441.44;5035959;28;45386;-81
2022/05/23 03:52:27;;;;;;;;;5.00;5.00;;;;;18.21;65.76;99441.56;5035406;28;45257;-80
2022/05/23 03:54:52;;;;;;;;;3.00;3.00;;;;;18.23;65.22;99431.59;5034055;28;46021;-80
2022/05/23 03:57:18;;;;;;;;;4.00;4.00;;;;;18.20;65.55;99439.81;5035755;28;45276;-81
2022/05/23 03:59:45;;;;;;;;;4.50;4.50;;;;;18.18;65.73;99433.75;5035201;28;45631;-77
2022/05/23 04:02:11;;;;;;;;;6.00;4.25;;;;;18.14;66.43;99449.13;5037294;28;45383;-76
2022/05/23 04:04:37;;;;;;;;;3.75;3.00;;;;;18.09;65.31;99443.25;5037045;28;45438;-79
2022/05/23 04:07:05;;;;;;;;;8.00;5.25;;;;;18.04;65.64;99429.34;5033840;28;45513;-78
2022/05/23 04:09:31;;;;;;;;;3.00;3.00;;;;;18.06;66.14;99430.09;5035234;28;45401;-78
2022/05/23 04:11:57;;;;;;;;;5.25;5.25;;;;;18.00;65.41;99404.63;5034905;28;45450;-77
2022/05/23 04:14:25;;;;;;;;;4.25;4.25;;;;;18.01;65.80;99408.19;5035089;28;45351;-77
2022/05/23 04:16:50;;;;;;;;;4.25;4.25;;;;;17.97;66.09;99398.66;5034818;28;45336;-76
2022/05/23 04:19:16;;;;;;;;;5.00;4.75;;;;;17.98;66.03;99395.88;5034283;28;45458;-77
2022/05/23 04:21:43;;;;;;;;;4.00;4.00;;;;;18.00;66.38;99393.94;5032436;28;45647;-78
2022/05/23 04:24:11;;;;;;;;;5.00;5.00;;;;;18.03;67.02;99392.88;5034623;28;45497;-76
2022/05/23 04:26:37;;;;;;;;;3.75;3.75;;;;;18.04;66.89;99378.56;5034866;28;45434;-76
2022/05/23 04:29:03;;;;;;;;;8.25;6.25;;;;;18.00;68.56;99372.56;5033225;28;45532;-78
2022/05/23 04:31:29;;;;;;;;;6.00;5.50;;;;;17.93;69.05;99366.78;5039276;28;45370;-78
2022/05/23 04:36:38;;;;;;;;;7.75;4.25;;;;;17.82;68.96;99341.75;5034960;28;45370;-78
2022/05/23 04:39:03;;;;;;;;;5.00;5.00;;;;;17.67;69.69;99327.63;5034658;28;45439;-76
2022/05/23 04:41:29;;;;;;;;;6.25;5.25;;;;;17.70;70.82;99330.09;5035168;28;45411;-78
2022/05/23 04:43:55;;;;;;;;;6.00;6.00;;;;;17.73;72.79;99337.88;5034594;28;46443;-78
2022/05/23 04:46:20;;;;;;;;;4.75;4.00;;;;;17.75;71.95;99360.03;5034193;28;45387;-77
2022/05/23 04:51:29;;;;;;;;;4.00;3.75;;;;;17.83;71.58;99363.00;5034100;28;45382;-78
2022/05/23 04:53:56;;;;;;;;;7.00;7.00;;;;;17.94;72.29;99362.28;5034279;28;45435;-77
2022/05/23 04:56:26;;;;;;;;;5.00;5.00;;;;;18.18;70.25;99369.56;5034596;28;45366;-78
2022/05/23 04:58:51;;;;;;;;;6.00;6.00;;;;;18.43;70.36;99357.97;5033037;28;45430;-79
2022/05/23 05:01:18;;;;;;;;;7.00;7.00;;;;;18.56;70.24;99348.09;5039507;28;45433;-76
2022/05/23 05:03:43;;;;;;;;;7.50;6.50;;;;;18.52;68.58;99335.88;5037302;28;45995;-77
2022/05/23 05:06:09;;;;;;;;;5.75;5.50;;;;;18.40;67.84;99331.44;5034576;28;45516;-78
2022/05/23 05:08:34;;;;;;;;;9.00;9.00;;;;;18.32;68.60;99323.13;5034408;28;45390;-78
2022/05/23 05:11:04;;;;;;;;;4.00;4.00;;;;;18.23;69.10;99314.78;5034421;28;45426;-78
2022/05/23 05:13:29;;;;;;;;;7.50;7.50;;;;;18.11;69.30;99310.31;5034000;28;45448;-76
2022/05/23 05:15:59;;;;;;;;;7.00;7.00;;;;;18.03;69.84;99316.22;5033598;28;45485;-78
2022/05/23 05:18:25;;;;;;;;;6.75;5.00;;;;;18.01;69.71;99330.66;5034530;28;45294;-78
2022/05/23 05:20:50;;;;;;;;;5.75;5.75;;;;;17.93;69.53;99326.72;5021411;28;45509;-78
2022/05/23 05:23:16;;;;;;;;;8.75;5.75;;;;;17.96;69.93;99322.09;5014381;28;46185;-78
2022/05/23 05:25:41;;;;;;;;;6.00;6.00;;;;;17.94;70.04;99301.66;5014130;28;45542;-79
2022/05/23 05:28:07;;;;;;;;;7.25;7.25;;;;;17.98;70.14;99305.00;5014753;28;45542;-78
2022/05/23 05:30:41;;;;;;;;;7.50;6.00;;;;;18.01;70.52;99309.28;5018115;28;45413;-78
2022/05/23 05:33:11;;;;;;;;;6.25;6.25;;;;;18.08;70.20;99322.09;5017058;28;46463;-77
2022/05/23 05:35:57;;;;;;;;;9.00;8.00;;;;;18.10;70.49;99328.19;5016254;28;45536;-78
2022/05/23 05:38:25;;;;;;;;;4.00;4.00;;;;;18.24;70.37;99340.56;5014444;28;45420;-77
2022/05/23 05:41:01;;;;;;;;;8.00;8.00;;;;;18.36;70.69;99346.00;5014239;28;45278;-78
2022/05/23 05:43:31;;;;;;;;;12.00;11.00;;;;;18.70;69.59;99364.97;5013760;28;45373;-78
2022/05/23 05:46:04;;;;;;;;;9.00;7.75;;;;;18.77;69.01;99364.41;5012373;28;45348;-78
2022/05/23 05:48:30;;;;;;;;;6.25;6.25;;;;;18.95;68.12;99348.84;5022554;28;45470;-78
2022/05/23 05:50:56;;;;;;;;;7.50;7.50;;;;;19.26;69.11;99341.19;5033407;28;45378;-79
2022/05/23 05:53:29;;;;;;;;;9.75;6.75;;;;;19.61;67.47;99329.59;5032248;28;46220;-78
2022/05/23 05:55:56;;;;;;;;;9.50;5.50;;;;;19.95;65.95;99302.88;5034125;28;45513;-78
2022/05/23 05:58:21;;;;;;;;;8.75;8.25;;;;;20.26;63.48;99288.84;5035910;28;45392;-79
2022/05/23 06:00:48;;;;;;;;;8.75;6.75;;;;;20.91;62.60;99309.47;5038527;28;45461;-79
2022/05/23 06:03:13;;;;;;;;;6.00;6.00;;;;;20.87;61.49;99317.91;5036331;28;46066;-78
2022/05/23 06:11:26;;;;;;;;;6.50;6.50;;;;;20.41;62.16;99322.50;5036912;28;45482;-77
2022/05/23 06:13:52;;;;;;;;;6.00;6.00;;;;;20.20;62.68;99335.78;5036761;28;45438;-77
2022/05/23 06:16:18;;;;;;;;;6.25;5.00;;;;;20.00;63.40;99338.22;5036552;28;45590;-78
2022/05/23 06:18:44;;;;;;;;;7.50;5.00;;;;;19.83;64.06;99339.53;5036271;28;45340;-78
2022/05/23 06:21:10;;;;;;;;;8.75;7.50;;;;;19.75;64.64;99336.56;5036440;28;45422;-80
2022/05/23 06:23:36;;;;;;;;;8.50;8.50;;;;;19.63;64.93;99334.84;5036415;28;45951;-79
2022/05/23 06:26:02;;;;;;;;;6.50;6.00;;;;;19.52;65.30;99320.47;5037311;28;45439;-76
2022/05/23 06:28:28;;;;;;;;;8.75;8.75;;;;;19.36;65.77;99311.88;5037868;28;45435;-81
2022/05/23 06:30:54;;;;;;;;;5.75;5.75;;;;;19.34;66.52;99301.28;5043983;28;45440;-81
2022/05/23 06:33:20;;;;;;;;;9.50;7.25;;;;;19.36;66.64;99298.50;5041677;28;48015;-80
2022/05/23 06:35:45;;;;;;;;;9.75;6.75;;;;;19.25;66.73;99272.53;5037601;28;45426;-82
2022/05/23 06:38:11;;;;;;;;;9.00;8.00;;;;;19.30;66.93;99267.66;5035775;28;45561;-81
2022/05/23 06:40:36;;;;;;;;;6.25;5.25;;;;;19.32;67.21;99263.03;5038603;28;45536;-81
2022/05/23 06:43:01;;;;;;;;;10.25;8.50;;;;;19.37;67.27;99275.22;5036951;28;45892;-79
2022/05/23 06:45:27;;;;;;;;;6.00;6.00;;;;;19.43;67.25;99278.28;5036311;28;45432;-78
2022/05/23 06:47:53;;;;;;;;;6.00;6.00;;;;;19.48;67.37;99276.13;5038250;28;45388;-78
2022/05/23 06:50:18;;;;;;;;;8.25;8.25;;;;;19.47;67.71;99276.25;5039480;28;45473;-78
2022/05/23 06:52:44;;;;;;;;;6.50;5.00;;;;;19.45;67.36;99272.81;5036605;28;45435;-78
2022/05/23 06:55:09;;;;;;;;;6.25;5.00;;;;;19.45;67.65;99276.34;5036067;28;45391;-77
2022/05/23 06:57:35;;;;;;;;;8.00;8.00;;;;;19.42;67.55;99278.41;5038884;28;45414;-77
2022/05/23 07:00:00;;;;;;;;;7.00;7.00;;;;;19.38;68.47;99285.81;5038986;28;45635;-77
2022/05/23 07:02:26;;;;;;;;;8.50;7.00;;;;;19.28;67.49;99269.63;5035529;28;46206;-79
2022/05/23 07:13:03;;;;;;;;;6.00;6.00;;;;;19.16;68.98;99275.91;5036251;28;45888;-79
2022/05/23 07:15:35;;;;;;;;;8.00;8.00;;;;;19.11;68.93;99264.69;5032813;28;45405;-78
2022/05/23 07:18:00;;;;;;;;;6.75;6.00;;;;;19.16;68.92;99276.78;5036502;28;45486;-78
2022/05/23 07:20:26;;;;;;;;;6.00;6.00;;;;;19.17;69.05;99275.78;5035019;28;45386;-78
2022/05/23 07:22:52;;;;;;;;;9.50;9.25;;;;;19.12;69.08;99264.56;5034447;28;46301;-78
2022/05/23 07:25:18;;;;;;;;;9.50;9.50;;;;;19.15;69.73;99258.16;5035038;28;45467;-78
2022/05/23 07:27:44;;;;;;;;;8.00;8.00;;;;;19.32;69.05;99292.50;5039440;28;45375;-78
2022/05/23 07:30:09;;;;;;;;;8.00;8.00;;;;;19.23;69.15;99287.84;5038395;28;45500;-78
2022/05/23 07:32:35;;;;;;;;;7.50;7.00;;;;;19.05;69.73;99267.84;5035427;28;47200;-78
2022/05/23 07:35:00;;;;;;;;;7.75;7.75;;;;;19.07;69.73;99276.59;5035881;28;45349;-79
2022/05/23 07:37:27;;;;;;;;;9.25;9.25;;;;;19.15;70.36;99296.47;5036564;28;45391;-78
2022/05/23 07:39:54;;;;;;;;;11.25;8.50;;;;;19.20;69.92;99297.97;5035435;28;45482;-78
2022/05/23 07:42:19;;;;;;;;;7.75;7.75;;;;;19.30;69.79;99286.41;5035304;28;45436;-77
2022/05/23 07:44:45;;;;;;;;;12.00;10.75;;;;;19.51;69.54;99275.00;5035065;28;45426;-77
2022/05/23 07:47:11;;;;;;;;;6.00;6.00;;;;;19.96;69.34;99224.13;5035307;28;45389;-78
2022/05/23 07:49:36;;;;;;;;;8.00;7.75;;;;;21.02;66.74;99219.09;5034546;28;45439;-77
2022/05/23 07:52:02;;;;;;;;;8.00;8.00;;;;;21.64;64.44;99214.69;5037103;28;46628;-82
2022/05/23 08:02:41;;;;;;;;;11.75;9.25;;;;;22.23;62.01;99220.25;5036943;28;45486;-81
2022/05/23 08:05:08;;;;;;;;;7.75;6.75;;;;;22.18;61.65;99224.22;5036475;28;45457;-82
2022/05/23 08:07:33;;;;;;;;;10.25;10.25;;;;;22.02;62.81;99221.19;5037304;28;45447;-83
2022/05/23 08:10:00;;;;;;;;;11.25;11.25;;;;;21.95;62.98;99215.50;5041457;28;45571;-82
2022/05/23 08:12:29;;;;;;;;;15.00;11.00;;;;;21.91;64.99;99215.91;5040501;28;46620;-82
2022/05/23 08:14:56;;;;;;;;;12.75;12.75;;;;;21.87;64.93;99214.50;5037069;28;45498;-83
2022/05/23 08:17:22;;;;;;;;;10.00;10.00;;;;;21.96;65.82;99225.28;5038052;28;45396;-82
2022/05/23 08:19:48;;;;;;;;;10.00;10.00;;;;;21.98;66.29;99227.81;5036038;28;45406;-82
2022/05/23 08:22:14;;;;;;;;;13.75;13.00;;;;;21.86;66.05;99231.63;5037046;28;48282;-83
2022/05/23 08:24:39;;;;;;;;;9.75;9.75;;;;;21.76;66.95;99243.19;5037845;28;45355;-81
2022/05/23 08:27:05;;;;;;;;;9.25;9.25;;;;;21.64;66.74;99252.31;5042731;28;45337;-81
2022/05/23 08:29:31;;;;;;;;;12.25;9.75;;;;;21.50;67.17;99258.03;5037499;28;45350;-83
2022/05/23 08:31:58;;;;;;;;;10.50;9.25;;;;;21.36;66.94;99246.59;5036413;28;46026;-81
2022/05/23 08:34:24;;;;;;;;;8.25;7.50;;;;;21.21;66.51;99245.22;5035532;28;45481;-82
2022/05/23 08:36:52;;;;;;;;;9.00;9.00;;;;;21.21;66.37;99245.22;5036362;28;45379;-82
2022/05/23 08:39:17;;;;;;;;;12.25;9.50;;;;;21.20;67.10;99236.31;5037426;28;45499;-81
2022/05/23 08:41:45;;;;;;;;;12.25;8.50;;;;;21.28;66.79;99236.50;5037683;28;45725;-82
2022/05/23 08:44:24;;;;;;;;;14.00;13.00;;;;;21.26;66.82;99233.09;5035322;28;45431;-82
2022/05/23 08:46:56;;;;;;;;;11.75;9.00;;;;;21.34;67.09;99237.81;5037029;28;45378;-81
2022/05/23 08:49:37;;;;;;;;;12.50;11.50;;;;;21.40;66.29;99237.28;5037852;28;45295;-81
2022/05/23 08:52:18;;;;;;;;;7.00;7.00;;;;;21.29;65.39;99246.28;5035904;28;47143;-83
2022/05/23 08:54:49;;;;;;;;;6.50;6.50;;;;;21.19;65.51;99249.88;5038702;28;45526;-82
2022/05/23 08:57:28;;;;;;;;;12.75;11.00;;;;;21.08;66.22;99242.75;5042439;28;45430;-82
2022/05/23 08:59:57;;;;;;;;;11.50;11.25;;;;;20.93;66.39;99242.19;5036677;28;45446;-82
2022/05/23 09:02:44;;;;;;;;;11.00;10.25;;;;;20.84;66.60;99242.97;5035719;28;46110;-81
2022/05/23 09:05:18;;;;;;;;;13.00;10.00;;;;;20.71;66.80;99248.50;5035871;28;45479;-81
2022/05/23 09:07:54;;;;;;;;;9.00;8.25;;;;;20.53;66.35;99242.81;5036484;28;45347;-81
2022/05/23 09:10:40;;;;;;;;;14.25;12.25;;;;;20.37;66.74;99252.09;5036136;28;45485;-82
2022/05/23 09:13:07;;;;;;;;;14.25;13.50;;;;;20.36;67.69;99255.78;5035361;28;46291;-81
2022/05/23 09:15:33;;;;;;;;;19.75;19.75;;;;;20.31;66.93;99244.56;5036891;28;45639;-82
2022/05/23 09:18:04;;;;;;;;;14.00;11.75;;;;;20.39;67.53;99235.88;5037515;28;45345;-83
2022/05/23 09:20:39;;;;;;;;;13.00;11.75;;;;;20.53;67.37;99242.81;5027319;28;45328;-83
2022/05/23 09:23:13;;;;;;;;;12.00;12.00;;;;;20.65;66.63;99243.63;5014600;28;45410;-79
2022/05/23 09:25:38;;;;;;;;;15.75;13.75;;;;;20.65;65.61;99244.53;5014425;28;45415;-77
2022/05/23 09:28:11;;;;;;;;;14.50;12.25;;;;;20.71;65.84;99249.38;5015429;28;45450;-76
2022/05/23 09:30:38;;;;;;;;;12.75;12.75;;;;;20.82;65.52;99250.31;5015722;28;45437;-79
2022/05/23 09:33:18;;;;;;;;;10.00;10.00;;;;;21.07;64.98;99239.22;5015323;28;45539;-78
2022/05/23 09:35:43;;;;;;;;;14.00;14.00;;;;;21.29;64.33;99237.38;5013936;28;45407;-79
2022/05/23 09:38:14;;;;;;;;;16.50;14.00;;;;;21.51;64.03;99235.56;5015667;28;45354;-77
2022/05/23 09:40:39;;;;;;;;;13.50;13.50;;;;;21.72;62.78;99233.66;5017160;28;45526;-78
2022/05/23 09:47:44;;;;;;;;;12.25;12.00;;;;;22.40;61.03;99232.22;5017447;28;45549;-77
2022/05/23 09:49:18;;;;;;;;;12.75;12.75;;;;;22.42;60.23;99219.47;5016874;28;45363;-78
2022/05/23 09:51:58;;;;;;;;;13.25;13.00;;;;;22.42;59.91;99231.09;5018414;28;45432;-78
2022/05/23 09:54:32;;;;;;;;;12.50;11.25;;;;;22.42;60.10;99233.78;5020817;28;45409;-78
2022/05/23 09:57:02;;;;;;;;;10.75;10.75;;;;;22.29;60.03;99246.59;5018378;28;45344;-77
2022/05/23 09:59:36;;;;;;;;;11.50;11.50;;;;;22.19;59.98;99231.28;5032374;28;45300;-78
2022/05/23 10:02:18;;;;;;;;;14.00;14.00;;;;;22.14;60.17;99238.94;5037337;28;45405;-80
2022/05/23 10:04:45;;;;;;;;;14.00;14.00;;;;;22.02;60.16;99237.34;5036018;28;45463;-78
2022/05/23 10:07:21;;;;;;;;;12.75;12.00;;;;;21.88;60.85;99225.13;5037070;28;45549;-78
2022/05/23 10:10:06;;;;;;;;;11.75;10.25;;;;;21.74;61.47;99230.84;5035885;28;45369;-78
2022/05/23 10:12:33;;;;;;;;;16.50;12.75;;;;;21.62;61.13;99232.75;5037203;28;45354;-78
2022/05/23 10:15:24;;;;;;;;;14.25;14.25;;;;;21.55;61.08;99231.63;5036237;28;45411;-78
2022/05/23 10:17:59;;;;;;;;;12.25;11.25;;;;;21.44;61.35;99225.31;5051926;28;45500;-78
2022/05/23 10:20:34;;;;;;;;;18.75;17.00;;;;;21.35;61.50;99222.53;5034850;28;45432;-77
2022/05/23 10:23:07;;;;;;;;;15.75;15.00;;;;;21.19;61.55;99239.97;5038519;28;45509;-78
2022/05/23 10:25:38;;;;;;;;;15.00;15.00;;;;;21.04;61.09;99231.38;5038566;28;46690;-78
2022/05/23 10:28:20;;;;;;;;;17.00;15.75;;;;;20.93;61.58;99236.84;5036783;28;45514;-78
2022/05/23 10:31:03;;;;;;;;;16.75;16.75;;;;;20.84;61.96;99229.56;5037155;28;45412;-79
2022/05/23 10:33:30;;;;;;;;;17.75;17.50;;;;;20.80;61.70;99236.16;5036967;28;45349;-78
2022/05/23 10:36:09;;;;;;;;;16.25;16.25;;;;;20.74;61.90;99233.00;5036711;28;46133;-78
2022/05/23 10:42:13;;;;;;;;;15.25;15.25;;;;;20.66;62.97;99238.16;5036493;28;45292;-77
2022/05/23 10:44:28;;;;;;;;;18.25;15.75;;;;;20.62;63.79;99238.50;5035590;28;45465;-78
2022/05/23 10:47:07;;;;;;;;;19.50;17.00;;;;;20.62;64.47;99231.31;5036579;28;46141;-78
2022/05/23 10:49:48;;;;;;;;;18.25;17.00;;;;;20.52;63.91;99222.31;5015841;28;45464;-77
2022/05/23 10:52:38;;;;;;;;;21.75;20.00;;;;;20.52;64.17;99222.31;5018094;28;45388;-77
2022/05/23 10:55:26;;;;;;;;;20.50;18.00;;;;;20.50;64.67;99226.97;5018849;28;45486;-77
2022/05/23 10:58:12;;;;;;;;;15.50;15.50;;;;;20.40;64.87;99214.28;5016829;28;45511;-78
2022/05/23 11:00:52;;;;;;;;;20.25;20.25;;;;;20.33;64.75;99207.75;5030988;28;45543;-79
2022/05/23 11:03:47;;;;;;;;;20.25;16.00;;;;;20.22;64.89;99245.31;5015873;28;45492;-80
2022/05/23 11:06:23;;;;;;;;;22.50;21.00;;;;;20.10;65.66;99255.19;5016038;28;45503;-79
2022/05/23 11:08:51;;;;;;;;;21.00;21.00;;;;;20.05;65.72;99260.94;5015745;28;46178;-77
2022/05/23 11:11:35;;;;;;;;;21.50;19.75;;;;;19.97;66.87;99236.56;5015848;28;45629;-78
2022/05/23 11:14:37;;;;;;;;;17.50;15.75;;;;;19.87;67.59;99222.19;5016580;28;45518;-76
2022/05/23 11:17:32;;;;;;;;;20.00;17.50;;;;;19.76;68.19;99230.22;5016626;28;45403;-79
2022/05/23 11:20:14;;;;;;;;;13.50;13.50;;;;;19.70;67.73;99237.75;5017537;28;45476;-78
2022/05/23 11:22:46;;;;;;;;;20.50;20.50;;;;;19.63;68.60;99238.38;5022108;28;45346;-78
2022/05/23 11:25:27;;;;;;;;;17.75;17.75;;;;;19.54;68.55;99234.59;5021685;28;45518;-77
2022/05/23 11:33:50;;;;;;;;;19.25;18.25;;;;;19.66;69.25;99233.63;5016270;28;45545;-78
2022/05/23 11:36:28;;;;;;;;;19.00;18.75;;;;;19.88;69.93;99226.59;5015449;28;45447;-78
2022/05/23 11:38:53;;;;;;;;;20.00;19.00;;;;;20.45;69.37;99230.00;5031144;28;45582;-78
2022/05/23 11:41:31;;;;;;;;;26.75;22.50;;;;;20.96;67.63;99233.03;5035377;28;46163;-78
2022/05/23 11:43:57;;;;;;;;;24.00;23.75;;;;;21.38;68.96;99239.28;5035947;28;45418;-78
2022/05/23 11:46:36;;;;;;;;;23.00;21.00;;;;;21.60;65.10;99245.50;5034057;28;45510;-77
2022/05/23 11:49:03;;;;;;;;;21.25;19.00;;;;;21.65;64.56;99249.50;5036426;28;45523;-77
2022/05/23 11:51:36;;;;;;;;;21.00;20.25;;;;;21.55;65.18;99240.53;5037870;28;47464;-78
2022/05/23 11:54:03;;;;;;;;;21.50;18.75;;;;;21.39;64.71;99254.41;5039641;28;45355;-77
2022/05/23 11:56:35;;;;;;;;;24.75;21.75;;;;;21.22;65.43;99241.56;5035316;28;45531;-78
2022/05/23 11:59:00;;;;;;;;;22.75;22.00;;;;;21.05;65.82;99243.84;5035740;28;45329;-77
2022/05/23 12:01:29;;;;;;;;;16.25;15.50;;;;;20.98;65.92;99244.50;5033890;28;46062;-78
2022/05/23 12:03:55;;;;;;;;;18.50;18.50;;;;;20.97;66.56;99254.41;5035362;28;45500;-78
2022/05/23 12:06:24;;;;;;;;;22.25;21.25;;;;;20.90;66.90;99259.41;5050597;28;45454;-78
2022/05/23 12:08:58;;;;;;;;;20.25;19.25;;;;;20.91;66.33;99249.53;5035456;28;45307;-78
2022/05/23 12:11:29;;;;;;;;;18.00;18.00;;;;;20.83;65.60;99260.06;5035008;28;45461;-79
2022/05/23 12:13:59;;;;;;;;;18.00;17.75;;;;;20.63;65.97;99262.53;5035029;28;45518;-78
2022/05/23 12:16:31;;;;;;;;;18.25;16.25;;;;;20.45;66.27;99261.38;5035606;28;45475;-79
2022/05/23 12:19:08;;;;;;;;;13.75;13.50;;;;;20.23;66.20;99272.00;5036808;28;45558;-78
2022/05/23 12:21:36;;;;;;;;;17.25;16.75;;;;;20.10;66.04;99271.28;5053152;28;46261;-76
2022/05/23 12:24:20;;;;;;;;;18.75;16.75;;;;;20.10;66.40;99270.44;5036651;28;45464;-78
2022/05/23 12:26:52;;;;;;;;;13.50;13.25;;;;;20.04;66.23;99274.47;5034951;28;45474;-78
2022/05/23 12:29:23;;;;;;;;;18.00;12.00;;;;;19.96;66.61;99277.75;5034944;28;45434;-78
2022/05/23 12:32:10;;;;;;;;;14.50;14.50;;;;;19.87;66.69;99289.22;5051238;28;46669;-77
2022/05/23 12:34:43;;;;;;;;;17.75;16.25;;;;;19.80;66.69;99299.56;5034725;28;45512;-78